createdAt,value
2024-03-21T00:01:32.298Z,99942.14
2024-03-21T00:11:37.868Z,99940.65
2024-03-21T00:21:43.465Z,99940.57
2024-03-21T00:31:49.015Z,99941.52
2024-03-21T00:41:54.642Z,99936.48
2024-03-21T00:52:00.099Z,99927.13
2024-03-21T01:02:05.593Z,99924.30
2024-03-21T01:12:11.141Z,99920.23
2024-03-21T01:22:16.469Z,99913.42
2024-03-21T01:32:22.913Z,99901.05
2024-03-21T01:42:28.744Z,99900.36
2024-03-21T01:52:35.313Z,99895.30
2024-03-21T02:02:40.908Z,99894.37
2024-03-21T02:12:48.829Z,99900.59
2024-03-21T02:22:54.132Z,99891.66
2024-03-21T02:32:59.538Z,99880.38
2024-03-21T02:43:05.371Z,99873.83
2024-03-21T02:53:11.022Z,99873.02
2024-03-21T03:03:16.540Z,99874.27
2024-03-21T03:13:22.311Z,99872.60
2024-03-21T03:23:27.732Z,99876.48
2024-03-21T03:33:51.457Z,99874.63
2024-03-21T03:43:56.906Z,99883.10
2024-03-21T03:54:02.448Z,99883.52
2024-03-21T04:04:07.870Z,99880.26
2024-03-21T04:14:13.354Z,99883.16
2024-03-21T04:24:18.857Z,99885.29
2024-03-21T04:34:24.682Z,99882.67
2024-03-21T04:44:30.178Z,99889.10
2024-03-21T04:54:35.659Z,99899.85
2024-03-21T05:04:41.014Z,99900.48
2024-03-21T05:14:46.444Z,99907.77
2024-03-21T05:24:52.082Z,99901.30
2024-03-21T05:34:58.033Z,99899.55
2024-03-21T05:45:03.470Z,99893.77
2024-03-21T05:55:10.740Z,99881.50
2024-03-21T06:05:16.998Z,99873.90
2024-03-21T06:15:22.388Z,99884.02
2024-03-21T06:25:27.773Z,99875.77
2024-03-21T06:35:33.311Z,99873.89
2024-03-21T06:45:38.958Z,99881.37
2024-03-21T06:55:44.639Z,99877.35
2024-03-21T07:05:51.636Z,99875.52
2024-03-21T07:15:57.035Z,99878.95
2024-03-21T07:26:02.539Z,99878.41
2024-03-21T07:36:08.643Z,99876.27
2024-03-21T07:46:18.684Z,99877.90
2024-03-21T07:56:24.371Z,99873.66
2024-03-21T08:06:29.960Z,99867.57
2024-03-21T08:16:36.122Z,99871.42
2024-03-21T08:26:41.446Z,99861.92
2024-03-21T08:36:47.320Z,99856.73
2024-03-21T08:46:53.750Z,99852.45
2024-03-21T08:56:59.139Z,99852.06
2024-03-21T09:07:06.005Z,99842.49
2024-03-21T09:17:11.507Z,99841.29
2024-03-21T09:27:18.756Z,99832.29
2024-03-21T09:37:27.617Z,99828.00
2024-03-21T09:47:36.268Z,99818.41
2024-03-21T09:57:42.116Z,99807.52
2024-03-21T10:07:51.166Z,99797.85
2024-03-21T10:17:56.899Z,99798.54
2024-03-21T10:28:02.385Z,99782.91
2024-03-21T10:38:10.065Z,99776.91
2024-03-21T10:48:27.726Z,99769.74
2024-03-21T10:58:33.214Z,99765.05
2024-03-21T11:08:38.771Z,99758.85
2024-03-21T11:18:44.424Z,99749.19
2024-03-21T11:28:53.403Z,99746.56
2024-03-21T11:39:00.705Z,99741.23
2024-03-21T11:49:07.702Z,99741.09
2024-03-21T11:59:13.421Z,99733.28
2024-03-21T12:09:18.867Z,99727.23
2024-03-21T12:19:24.652Z,99715.00
2024-03-21T12:29:30.484Z,99703.41
2024-03-21T12:39:36.811Z,99687.89
2024-03-21T12:49:43.561Z,99678.97
2024-03-21T12:59:49.331Z,99669.54
2024-03-21T13:09:54.902Z,99661.38
2024-03-21T13:20:00.569Z,99648.80
2024-03-21T13:30:08.222Z,99638.37
2024-03-21T13:40:14.341Z,99632.95
2024-03-21T13:50:19.944Z,99624.84
2024-03-21T14:00:31.132Z,99615.05
2024-03-21T14:10:36.652Z,99611.20
2024-03-21T14:20:42.987Z,99608.77
2024-03-21T14:30:49.080Z,99603.33
2024-03-21T14:40:54.611Z,99598.94
2024-03-21T14:51:00.001Z,99592.06
2024-03-21T15:01:05.818Z,99589.39
2024-03-21T15:11:11.353Z,99593.41
2024-03-21T15:21:17.868Z,99594.12
2024-03-21T15:31:23.666Z,99583.83
2024-03-21T15:41:29.723Z,99581.95
2024-03-21T15:51:35.177Z,99578.75
2024-03-21T16:01:40.777Z,99569.90
2024-03-21T16:11:55.611Z,99569.29
2024-03-21T16:22:02.801Z,99563.49
2024-03-21T16:32:08.722Z,99568.73
2024-03-21T16:42:14.289Z,99571.07
2024-03-21T16:52:19.633Z,99569.34
2024-03-21T17:02:25.824Z,99567.22
2024-03-21T17:12:31.282Z,99577.80
2024-03-21T17:22:36.890Z,99587.32
2024-03-21T17:32:42.361Z,99603.27
2024-03-21T17:42:49.701Z,99622.42
2024-03-21T17:52:55.762Z,99625.10
2024-03-21T18:03:01.273Z,99630.16
2024-03-21T18:13:08.687Z,99633.70
2024-03-21T18:23:15.206Z,99639.52
2024-03-21T18:33:20.789Z,99644.79
2024-03-21T18:43:26.546Z,99637.23
2024-03-21T18:53:32.163Z,99631.80
2024-03-21T19:03:37.559Z,99636.02
2024-03-21T19:13:43.120Z,99645.50
2024-03-21T19:23:48.679Z,99642.30
2024-03-21T19:33:54.945Z,99644.67
2024-03-21T19:44:00.421Z,99650.80
2024-03-21T19:54:05.821Z,99647.36
2024-03-21T20:04:16.245Z,99643.52
2024-03-21T20:14:21.883Z,99636.34
2024-03-21T20:24:27.569Z,99625.58
2024-03-21T20:34:32.962Z,99625.31
2024-03-21T20:44:38.506Z,99623.83
2024-03-21T20:54:44.011Z,99627.36
2024-03-21T21:04:51.481Z,99633.60
2024-03-21T21:14:56.928Z,99628.76
2024-03-21T21:25:02.968Z,99624.34
2024-03-21T21:35:09.551Z,99629.38
2024-03-21T21:45:15.227Z,99634.46
2024-03-21T21:55:20.943Z,99637.77
2024-03-21T22:05:26.421Z,99642.02
2024-03-21T22:15:32.876Z,99639.73
2024-03-21T22:25:47.140Z,99637.67
2024-03-21T22:35:52.522Z,99637.82
2024-03-21T22:46:05.493Z,99634.90
2024-03-21T22:56:13.786Z,99632.29
2024-03-21T23:06:19.058Z,99632.28
2024-03-21T23:16:24.440Z,99626.36
2024-03-21T23:26:30.723Z,99629.34
2024-03-21T23:36:36.195Z,99629.77
2024-03-21T23:46:41.634Z,99627.61
2024-03-21T23:56:58.232Z,99620.85
